This is the latest recevied weather packets stored in our database for station/object AC1IX. If no packets are shown the sender has not sent any weather packets the latest 10 day(s).
| Time | Temp. | Humidity | Pressure | Rain* | Wind** | Luminosity | Snow |
|---|---|---|---|---|---|---|---|
| 1777924555 | 19.44° C | 43% | 1008.2 hPa | 0 mm | - | 138 W/m² | - |
| 1777924252 | 20° C | 42% | 1007.9 hPa | 0 mm | - | 118 W/m² | - |
| 1777923948 | 20° C | 42% | 1008.2 hPa | 0 mm | - | 152 W/m² | - |
| 1777923644 | 19.44° C | 43% | 1008.2 hPa | 0 mm | - | 177 W/m² | - |
| 1777923341 | 18.89° C | 43% | 1008.3 hPa | 0 mm | - | 164 W/m² | - |
| 1777923039 | 18.89° C | 43% | 1008.4 hPa | 0 mm | - | 216 W/m² | - |
| 1777922737 | 18.89° C | 44% | 1008.2 hPa | 0 mm | - | 142 W/m² | - |
| 1777922435 | 18.89° C | 44% | 1008.3 hPa | 0 mm | - | 151 W/m² | - |
| 1777922133 | 18.89° C | 43% | 1008.3 hPa | 0 mm | - | 157 W/m² | - |
| 1777921829 | 18.89° C | 43% | 1008.4 hPa | 0 mm | - | 171 W/m² | - |
| 1777921525 | 19.44° C | 42% | 1008.4 hPa | 0 mm | - | 239 W/m² | - |
| 1777921221 | 20° C | 41% | 1008.2 hPa | 0 mm | - | 206 W/m² | - |
| 1777920918 | 19.44° C | 42% | 1008.4 hPa | 0 mm | - | 249 W/m² | - |
| 1777920615 | 20.56° C | 41% | 1008.3 hPa | 0 mm | - | 192 W/m² | - |
| 1777920310 | 19.44° C | 44% | 1008.5 hPa | 0 mm | - | 794 W/m² | - |
| 1777920006 | 19.44° C | 42% | 1008.6 hPa | 0 mm | - | 282 W/m² | - |
| 1777919703 | 19.44° C | 43% | 1008.6 hPa | 0 mm | - | 200 W/m² | - |
| 1777919401 | 19.44° C | 42% | 1008.5 hPa | 0 mm | - | 775 W/m² | - |
| 1777919098 | 20° C | 42% | 1008.5 hPa | 0 mm | - | 675 W/m² | - |
| 1777918795 | 20° C | 42% | 1008.5 hPa | 0 mm | - | 686 W/m² | - |
| 1777918492 | 20.56° C | 40% | 1008.5 hPa | 0 mm | - | 181 W/m² | - |
| 1777918190 | 20° C | 40% | 1008.5 hPa | 0 mm | - | 744 W/m² | - |
| 1777917889 | 19.44° C | 41% | 1008.5 hPa | 0 mm | - | 267 W/m² | - |
| 1777917587 | 18.89° C | 43% | 1008.9 hPa | 0 mm | - | 296 W/m² | - |
| 1777917284 | 19.44° C | 43% | 1008.7 hPa | 0 mm | - | 589 W/m² | - |
* Rain latest hour (hover to see other rain measurements)
** Current wind speed in m/s (hover to see current wind gust speed)